sensor_id;sensor_type;location;lat;lon;timestamp;P1;durP1;ratioP1;P2;durP2;ratioP2
438;SDS011;206;48.782;9.252;2023-04-15T00:00:14;10.53;;;5.30;;
438;SDS011;206;48.782;9.252;2023-04-15T00:02:40;9.07;;;5.30;;
438;SDS011;206;48.782;9.252;2023-04-15T00:05:06;7.60;;;5.60;;
438;SDS011;206;48.782;9.252;2023-04-15T00:07:32;4.53;;;4.30;;
438;SDS011;206;48.782;9.252;2023-04-15T00:09:58;4.10;;;3.80;;
438;SDS011;206;48.782;9.252;2023-04-15T00:12:24;5.87;;;3.90;;
438;SDS011;206;48.782;9.252;2023-04-15T00:14:51;12.20;;;4.40;;
438;SDS011;206;48.782;9.252;2023-04-15T00:17:17;11.10;;;5.00;;
438;SDS011;206;48.782;9.252;2023-04-15T00:19:43;7.47;;;4.97;;
438;SDS011;206;48.782;9.252;2023-04-15T00:22:11;8.33;;;5.67;;
438;SDS011;206;48.782;9.252;2023-04-15T00:24:37;5.60;;;5.13;;
438;SDS011;206;48.782;9.252;2023-04-15T00:27:03;11.27;;;5.40;;
438;SDS011;206;48.782;9.252;2023-04-15T00:29:29;6.13;;;5.10;;
438;SDS011;206;48.782;9.252;2023-04-15T00:31:55;5.77;;;4.93;;
438;SDS011;206;48.782;9.252;2023-04-15T00:34:21;8.97;;;4.40;;
438;SDS011;206;48.782;9.252;2023-04-15T00:36:48;5.17;;;4.87;;
438;SDS011;206;48.782;9.252;2023-04-15T00:39:14;11.80;;;6.50;;
438;SDS011;206;48.782;9.252;2023-04-15T00:41:40;9.63;;;5.70;;
438;SDS011;206;48.782;9.252;2023-04-15T00:44:06;8.53;;;5.60;;
438;SDS011;206;48.782;9.252;2023-04-15T00:46:34;10.40;;;5.47;;
438;SDS011;206;48.782;9.252;2023-04-15T00:49:02;6.77;;;5.70;;
438;SDS011;206;48.782;9.252;2023-04-15T00:51:31;7.53;;;6.20;;
438;SDS011;206;48.782;9.252;2023-04-15T00:54:00;7.33;;;5.70;;
438;SDS011;206;48.782;9.252;2023-04-15T00:56:30;6.67;;;4.20;;
438;SDS011;206;48.782;9.252;2023-04-15T00:58:59;8.80;;;4.70;;
438;SDS011;206;48.782;9.252;2023-04-15T01:01:26;6.70;;;4.90;;
438;SDS011;206;48.782;9.252;2023-04-15T01:03:55;19.03;;;5.10;;
438;SDS011;206;48.782;9.252;2023-04-15T01:06:24;8.77;;;5.40;;
438;SDS011;206;48.782;9.252;2023-04-15T01:08:51;10.37;;;4.67;;
438;SDS011;206;48.782;9.252;2023-04-15T01:11:17;6.17;;;4.70;;
438;SDS011;206;48.782;9.252;2023-04-15T01:13:43;9.83;;;5.83;;
438;SDS011;206;48.782;9.252;2023-04-15T01:16:09;7.90;;;6.10;;
438;SDS011;206;48.782;9.252;2023-04-15T01:18:36;13.43;;;5.53;;
438;SDS011;206;48.782;9.252;2023-04-15T01:21:03;6.70;;;5.37;;
438;SDS011;206;48.782;9.252;2023-04-15T01:23:29;7.73;;;5.13;;
438;SDS011;206;48.782;9.252;2023-04-15T01:25:56;8.67;;;5.97;;
438;SDS011;206;48.782;9.252;2023-04-15T01:28:22;10.40;;;5.90;;
438;SDS011;206;48.782;9.252;2023-04-15T01:30:48;7.40;;;5.57;;
438;SDS011;206;48.782;9.252;2023-04-15T01:33:13;8.20;;;5.50;;
438;SDS011;206;48.782;9.252;2023-04-15T01:35:40;10.00;;;5.60;;
438;SDS011;206;48.782;9.252;2023-04-15T01:38:08;6.43;;;5.00;;
438;SDS011;206;48.782;9.252;2023-04-15T01:40:35;9.27;;;5.10;;
438;SDS011;206;48.782;9.252;2023-04-15T01:43:01;6.20;;;5.47;;
438;SDS011;206;48.782;9.252;2023-04-15T01:45:27;8.90;;;6.20;;
438;SDS011;206;48.782;9.252;2023-04-15T01:47:53;8.03;;;4.87;;
438;SDS011;206;48.782;9.252;2023-04-15T01:50:19;5.20;;;4.50;;
438;SDS011;206;48.782;9.252;2023-04-15T01:52:45;9.10;;;4.80;;
438;SDS011;206;48.782;9.252;2023-04-15T01:55:11;7.33;;;5.73;;
438;SDS011;206;48.782;9.252;2023-04-15T01:57:37;7.53;;;5.00;;
438;SDS011;206;48.782;9.252;2023-04-15T02:00:03;5.57;;;4.50;;
438;SDS011;206;48.782;9.252;2023-04-15T02:02:31;5.00;;;4.50;;
438;SDS011;206;48.782;9.252;2023-04-15T02:04:57;6.30;;;5.30;;
438;SDS011;206;48.782;9.252;2023-04-15T02:07:23;9.63;;;4.70;;
438;SDS011;206;48.782;9.252;2023-04-15T02:09:49;6.10;;;3.80;;
438;SDS011;206;48.782;9.252;2023-04-15T02:12:14;8.63;;;4.50;;
438;SDS011;206;48.782;9.252;2023-04-15T02:14:40;9.63;;;5.20;;
438;SDS011;206;48.782;9.252;2023-04-15T02:17:06;6.70;;;4.73;;
438;SDS011;206;48.782;9.252;2023-04-15T02:19:33;9.93;;;5.20;;
438;SDS011;206;48.782;9.252;2023-04-15T02:21:59;10.40;;;5.43;;
438;SDS011;206;48.782;9.252;2023-04-15T02:24:26;11.97;;;5.23;;
438;SDS011;206;48.782;9.252;2023-04-15T02:26:52;6.90;;;5.00;;
438;SDS011;206;48.782;9.252;2023-04-15T02:29:18;8.07;;;5.47;;
438;SDS011;206;48.782;9.252;2023-04-15T02:31:44;12.33;;;5.60;;
438;SDS011;206;48.782;9.252;2023-04-15T02:34:09;8.97;;;5.27;;
438;SDS011;206;48.782;9.252;2023-04-15T02:36:35;20.10;;;6.27;;
438;SDS011;206;48.782;9.252;2023-04-15T02:39:01;6.00;;;4.97;;
438;SDS011;206;48.782;9.252;2023-04-15T02:41:28;7.40;;;5.17;;
438;SDS011;206;48.782;9.252;2023-04-15T02:43:54;6.27;;;4.23;;
438;SDS011;206;48.782;9.252;2023-04-15T02:46:20;6.43;;;4.90;;
438;SDS011;206;48.782;9.252;2023-04-15T02:48:47;7.00;;;5.53;;
438;SDS011;206;48.782;9.252;2023-04-15T02:51:13;6.23;;;5.13;;
438;SDS011;206;48.782;9.252;2023-04-15T02:53:44;9.00;;;5.00;;
438;SDS011;206;48.782;9.252;2023-04-15T02:56:10;12.00;;;5.47;;
438;SDS011;206;48.782;9.252;2023-04-15T02:58:36;10.57;;;5.97;;
438;SDS011;206;48.782;9.252;2023-04-15T03:01:03;5.83;;;5.47;;
438;SDS011;206;48.782;9.252;2023-04-15T03:03:29;8.53;;;5.87;;
438;SDS011;206;48.782;9.252;2023-04-15T03:05:54;7.80;;;6.37;;
438;SDS011;206;48.782;9.252;2023-04-15T03:08:20;11.43;;;6.50;;
438;SDS011;206;48.782;9.252;2023-04-15T03:10:46;10.53;;;5.87;;
438;SDS011;206;48.782;9.252;2023-04-15T03:13:12;7.57;;;4.70;;
438;SDS011;206;48.782;9.252;2023-04-15T03:15:38;9.40;;;5.70;;
438;SDS011;206;48.782;9.252;2023-04-15T03:18:03;5.70;;;4.83;;
438;SDS011;206;48.782;9.252;2023-04-15T03:20:29;9.60;;;5.43;;
438;SDS011;206;48.782;9.252;2023-04-15T03:22:55;8.33;;;4.90;;
438;SDS011;206;48.782;9.252;2023-04-15T03:25:21;5.77;;;4.07;;
438;SDS011;206;48.782;9.252;2023-04-15T03:27:46;9.73;;;5.40;;
438;SDS011;206;48.782;9.252;2023-04-15T03:30:12;7.27;;;5.70;;
438;SDS011;206;48.782;9.252;2023-04-15T03:32:38;9.67;;;5.30;;
438;SDS011;206;48.782;9.252;2023-04-15T03:35:03;13.70;;;5.80;;
438;SDS011;206;48.782;9.252;2023-04-15T03:37:30;7.60;;;5.37;;
438;SDS011;206;48.782;9.252;2023-04-15T03:39:55;8.63;;;5.33;;
438;SDS011;206;48.782;9.252;2023-04-15T03:42:21;10.27;;;5.23;;
438;SDS011;206;48.782;9.252;2023-04-15T03:44:47;5.67;;;5.47;;
438;SDS011;206;48.782;9.252;2023-04-15T03:47:12;6.60;;;4.93;;
438;SDS011;206;48.782;9.252;2023-04-15T03:49:38;5.10;;;4.23;;
438;SDS011;206;48.782;9.252;2023-04-15T03:52:04;8.20;;;5.90;;
438;SDS011;206;48.782;9.252;2023-04-15T03:54:30;7.10;;;5.00;;
438;SDS011;206;48.782;9.252;2023-04-15T03:56:55;7.60;;;5.23;;
438;SDS011;206;48.782;9.252;2023-04-15T03:59:21;5.93;;;4.80;;
438;SDS011;206;48.782;9.252;2023-04-15T04:01:47;6.40;;;4.87;;
438;SDS011;206;48.782;9.252;2023-04-15T04:04:13;8.37;;;5.67;;
438;SDS011;206;48.782;9.252;2023-04-15T04:06:38;5.00;;;4.53;;
438;SDS011;206;48.782;9.252;2023-04-15T04:09:04;11.10;;;5.30;;
438;SDS011;206;48.782;9.252;2023-04-15T04:11:30;7.53;;;5.23;;
438;SDS011;206;48.782;9.252;2023-04-15T04:13:57;8.83;;;5.07;;
438;SDS011;206;48.782;9.252;2023-04-15T04:16:22;8.40;;;6.50;;
438;SDS011;206;48.782;9.252;2023-04-15T04:18:48;8.37;;;5.53;;
438;SDS011;206;48.782;9.252;2023-04-15T04:21:13;6.33;;;4.63;;
438;SDS011;206;48.782;9.252;2023-04-15T04:23:39;9.30;;;5.07;;
438;SDS011;206;48.782;9.252;2023-04-15T04:26:05;11.90;;;5.63;;
438;SDS011;206;48.782;9.252;2023-04-15T04:28:31;7.97;;;6.30;;
438;SDS011;206;48.782;9.252;2023-04-15T04:30:56;7.50;;;5.73;;
438;SDS011;206;48.782;9.252;2023-04-15T04:33:22;7.20;;;5.47;;
438;SDS011;206;48.782;9.252;2023-04-15T04:35:48;8.60;;;6.03;;
438;SDS011;206;48.782;9.252;2023-04-15T04:38:13;9.70;;;6.20;;
438;SDS011;206;48.782;9.252;2023-04-15T04:40:39;15.70;;;5.57;;
438;SDS011;206;48.782;9.252;2023-04-15T04:43:05;8.73;;;6.17;;
438;SDS011;206;48.782;9.252;2023-04-15T04:45:30;6.90;;;6.23;;
438;SDS011;206;48.782;9.252;2023-04-15T04:47:56;6.53;;;5.83;;
438;SDS011;206;48.782;9.252;2023-04-15T04:50:21;5.97;;;5.23;;
438;SDS011;206;48.782;9.252;2023-04-15T04:52:47;5.27;;;4.67;;
438;SDS011;206;48.782;9.252;2023-04-15T04:55:12;7.73;;;5.07;;
438;SDS011;206;48.782;9.252;2023-04-15T04:57:38;9.30;;;5.10;;
438;SDS011;206;48.782;9.252;2023-04-15T05:00:04;12.80;;;6.07;;
438;SDS011;206;48.782;9.252;2023-04-15T05:02:32;8.03;;;5.30;;
438;SDS011;206;48.782;9.252;2023-04-15T05:04:58;7.40;;;5.20;;
438;SDS011;206;48.782;9.252;2023-04-15T05:07:23;6.80;;;4.80;;
438;SDS011;206;48.782;9.252;2023-04-15T05:09:49;7.20;;;5.63;;
438;SDS011;206;48.782;9.252;2023-04-15T05:12:15;8.33;;;6.13;;
438;SDS011;206;48.782;9.252;2023-04-15T05:14:42;8.73;;;4.87;;
438;SDS011;206;48.782;9.252;2023-04-15T05:17:08;6.00;;;5.03;;
438;SDS011;206;48.782;9.252;2023-04-15T05:19:33;9.10;;;4.93;;
438;SDS011;206;48.782;9.252;2023-04-15T05:21:59;5.50;;;4.93;;
438;SDS011;206;48.782;9.252;2023-04-15T05:24:25;7.87;;;5.50;;
438;SDS011;206;48.782;9.252;2023-04-15T05:26:51;7.47;;;5.50;;
438;SDS011;206;48.782;9.252;2023-04-15T05:29:16;8.07;;;5.17;;
438;SDS011;206;48.782;9.252;2023-04-15T05:31:42;10.30;;;5.90;;
438;SDS011;206;48.782;9.252;2023-04-15T05:34:08;7.40;;;5.50;;
438;SDS011;206;48.782;9.252;2023-04-15T05:36:34;6.20;;;5.67;;
438;SDS011;206;48.782;9.252;2023-04-15T05:38:59;8.57;;;6.10;;
438;SDS011;206;48.782;9.252;2023-04-15T05:41:25;7.10;;;4.60;;
438;SDS011;206;48.782;9.252;2023-04-15T05:43:51;6.63;;;5.23;;
438;SDS011;206;48.782;9.252;2023-04-15T05:46:17;8.03;;;4.67;;
438;SDS011;206;48.782;9.252;2023-04-15T05:48:42;5.83;;;4.90;;
438;SDS011;206;48.782;9.252;2023-04-15T05:51:08;8.10;;;4.47;;
438;SDS011;206;48.782;9.252;2023-04-15T05:53:33;8.43;;;5.10;;
438;SDS011;206;48.782;9.252;2023-04-15T05:55:59;9.87;;;4.57;;
438;SDS011;206;48.782;9.252;2023-04-15T05:58:25;9.67;;;4.97;;
438;SDS011;206;48.782;9.252;2023-04-15T06:00:51;10.50;;;4.73;;
438;SDS011;206;48.782;9.252;2023-04-15T06:03:17;8.63;;;5.40;;
438;SDS011;206;48.782;9.252;2023-04-15T06:05:42;8.63;;;5.10;;
438;SDS011;206;48.782;9.252;2023-04-15T06:08:08;5.43;;;4.17;;
438;SDS011;206;48.782;9.252;2023-04-15T06:10:35;4.87;;;3.93;;
438;SDS011;206;48.782;9.252;2023-04-15T06:13:01;6.47;;;5.00;;
438;SDS011;206;48.782;9.252;2023-04-15T06:15:28;8.50;;;5.20;;
438;SDS011;206;48.782;9.252;2023-04-15T06:17:54;8.67;;;5.17;;
438;SDS011;206;48.782;9.252;2023-04-15T06:20:20;5.77;;;4.73;;
438;SDS011;206;48.782;9.252;2023-04-15T06:22:45;5.47;;;3.90;;
438;SDS011;206;48.782;9.252;2023-04-15T06:25:11;7.20;;;4.40;;
438;SDS011;206;48.782;9.252;2023-04-15T06:27:37;9.80;;;4.07;;
438;SDS011;206;48.782;9.252;2023-04-15T06:30:03;5.37;;;3.47;;
438;SDS011;206;48.782;9.252;2023-04-15T06:32:29;16.73;;;5.03;;
438;SDS011;206;48.782;9.252;2023-04-15T06:34:54;7.03;;;3.53;;
438;SDS011;206;48.782;9.252;2023-04-15T06:37:20;7.30;;;4.57;;
438;SDS011;206;48.782;9.252;2023-04-15T06:39:46;5.17;;;4.33;;
438;SDS011;206;48.782;9.252;2023-04-15T06:42:11;4.90;;;3.60;;
438;SDS011;206;48.782;9.252;2023-04-15T06:44:37;5.37;;;3.30;;
438;SDS011;206;48.782;9.252;2023-04-15T06:47:03;5.00;;;3.83;;
438;SDS011;206;48.782;9.252;2023-04-15T06:49:29;7.80;;;4.40;;
438;SDS011;206;48.782;9.252;2023-04-15T06:51:54;6.93;;;4.17;;
438;SDS011;206;48.782;9.252;2023-04-15T06:54:20;9.43;;;4.30;;
438;SDS011;206;48.782;9.252;2023-04-15T06:56:46;6.00;;;4.13;;
438;SDS011;206;48.782;9.252;2023-04-15T06:59:12;5.50;;;3.80;;
438;SDS011;206;48.782;9.252;2023-04-15T07:01:39;5.33;;;3.90;;
438;SDS011;206;48.782;9.252;2023-04-15T07:04:05;5.90;;;3.87;;
438;SDS011;206;48.782;9.252;2023-04-15T07:06:31;5.87;;;4.17;;
438;SDS011;206;48.782;9.252;2023-04-15T07:08:57;6.60;;;4.10;;
438;SDS011;206;48.782;9.252;2023-04-15T07:11:24;4.00;;;3.20;;
438;SDS011;206;48.782;9.252;2023-04-15T07:13:50;7.03;;;4.33;;
438;SDS011;206;48.782;9.252;2023-04-15T07:16:16;8.10;;;4.27;;
438;SDS011;206;48.782;9.252;2023-04-15T07:18:42;6.53;;;4.80;;
438;SDS011;206;48.782;9.252;2023-04-15T07:21:08;5.40;;;4.90;;
438;SDS011;206;48.782;9.252;2023-04-15T07:23:33;6.50;;;4.37;;
438;SDS011;206;48.782;9.252;2023-04-15T07:25:59;8.17;;;4.67;;
438;SDS011;206;48.782;9.252;2023-04-15T07:28:25;7.63;;;4.93;;
438;SDS011;206;48.782;9.252;2023-04-15T07:30:51;5.40;;;3.97;;
438;SDS011;206;48.782;9.252;2023-04-15T07:33:17;6.13;;;4.40;;
438;SDS011;206;48.782;9.252;2023-04-15T07:35:42;4.00;;;3.80;;
438;SDS011;206;48.782;9.252;2023-04-15T07:38:09;4.73;;;3.90;;
438;SDS011;206;48.782;9.252;2023-04-15T07:40:36;4.47;;;4.13;;
438;SDS011;206;48.782;9.252;2023-04-15T07:43:03;5.80;;;4.23;;
438;SDS011;206;48.782;9.252;2023-04-15T07:45:29;6.30;;;3.80;;
438;SDS011;206;48.782;9.252;2023-04-15T07:47:55;6.20;;;3.87;;
438;SDS011;206;48.782;9.252;2023-04-15T07:50:21;4.37;;;3.27;;
438;SDS011;206;48.782;9.252;2023-04-15T07:52:47;7.00;;;4.67;;
438;SDS011;206;48.782;9.252;2023-04-15T07:55:14;5.17;;;3.47;;
438;SDS011;206;48.782;9.252;2023-04-15T07:57:43;6.13;;;4.00;;
438;SDS011;206;48.782;9.252;2023-04-15T08:00:08;6.67;;;4.67;;
438;SDS011;206;48.782;9.252;2023-04-15T08:02:35;4.53;;;3.87;;
438;SDS011;206;48.782;9.252;2023-04-15T08:05:01;4.93;;;3.83;;
438;SDS011;206;48.782;9.252;2023-04-15T08:07:28;6.37;;;4.77;;
438;SDS011;206;48.782;9.252;2023-04-15T08:09:54;5.20;;;3.70;;
438;SDS011;206;48.782;9.252;2023-04-15T08:12:20;13.53;;;4.67;;
438;SDS011;206;48.782;9.252;2023-04-15T08:14:45;3.93;;;3.83;;
438;SDS011;206;48.782;9.252;2023-04-15T08:17:11;11.50;;;5.07;;
438;SDS011;206;48.782;9.252;2023-04-15T08:19:37;7.00;;;4.30;;
438;SDS011;206;48.782;9.252;2023-04-15T08:22:04;7.77;;;4.90;;
438;SDS011;206;48.782;9.252;2023-04-15T08:24:30;4.27;;;4.00;;
438;SDS011;206;48.782;9.252;2023-04-15T08:26:56;8.67;;;3.53;;
438;SDS011;206;48.782;9.252;2023-04-15T08:29:22;8.50;;;3.90;;
438;SDS011;206;48.782;9.252;2023-04-15T08:31:47;5.40;;;4.10;;
438;SDS011;206;48.782;9.252;2023-04-15T08:34:13;4.60;;;4.03;;
438;SDS011;206;48.782;9.252;2023-04-15T08:36:39;5.60;;;3.90;;
438;SDS011;206;48.782;9.252;2023-04-15T08:39:05;6.33;;;3.30;;
438;SDS011;206;48.782;9.252;2023-04-15T08:41:33;7.83;;;4.23;;
438;SDS011;206;48.782;9.252;2023-04-15T08:44:13;4.30;;;3.47;;
438;SDS011;206;48.782;9.252;2023-04-15T08:46:40;6.93;;;3.70;;
438;SDS011;206;48.782;9.252;2023-04-15T08:49:10;4.23;;;3.13;;
438;SDS011;206;48.782;9.252;2023-04-15T08:51:39;4.73;;;3.10;;
438;SDS011;206;48.782;9.252;2023-04-15T08:54:05;5.47;;;2.87;;
438;SDS011;206;48.782;9.252;2023-04-15T08:56:32;7.83;;;3.43;;
438;SDS011;206;48.782;9.252;2023-04-15T08:58:59;7.57;;;3.17;;
438;SDS011;206;48.782;9.252;2023-04-15T09:01:25;8.63;;;3.27;;
438;SDS011;206;48.782;9.252;2023-04-15T09:03:52;6.73;;;3.70;;
438;SDS011;206;48.782;9.252;2023-04-15T09:06:21;4.90;;;3.37;;
438;SDS011;206;48.782;9.252;2023-04-15T09:08:47;3.90;;;3.57;;
438;SDS011;206;48.782;9.252;2023-04-15T09:11:14;4.73;;;2.90;;
438;SDS011;206;48.782;9.252;2023-04-15T09:13:41;6.73;;;4.33;;
438;SDS011;206;48.782;9.252;2023-04-15T09:16:08;9.93;;;4.90;;
438;SDS011;206;48.782;9.252;2023-04-15T09:18:35;7.33;;;3.30;;
438;SDS011;206;48.782;9.252;2023-04-15T09:21:06;6.00;;;3.50;;
438;SDS011;206;48.782;9.252;2023-04-15T09:23:35;3.30;;;3.07;;
438;SDS011;206;48.782;9.252;2023-04-15T09:26:01;5.47;;;4.03;;
438;SDS011;206;48.782;9.252;2023-04-15T09:28:27;6.90;;;3.77;;
438;SDS011;206;48.782;9.252;2023-04-15T09:31:00;5.50;;;3.60;;
438;SDS011;206;48.782;9.252;2023-04-15T09:33:27;4.47;;;2.90;;
438;SDS011;206;48.782;9.252;2023-04-15T09:36:01;5.07;;;3.43;;
438;SDS011;206;48.782;9.252;2023-04-15T09:38:28;7.20;;;3.87;;
438;SDS011;206;48.782;9.252;2023-04-15T09:40:55;7.33;;;3.50;;
438;SDS011;206;48.782;9.252;2023-04-15T09:43:22;4.40;;;3.53;;
438;SDS011;206;48.782;9.252;2023-04-15T09:46:00;5.77;;;3.87;;
438;SDS011;206;48.782;9.252;2023-04-15T09:48:26;4.53;;;3.10;;
438;SDS011;206;48.782;9.252;2023-04-15T09:50:53;5.00;;;3.93;;
438;SDS011;206;48.782;9.252;2023-04-15T09:53:22;5.30;;;3.43;;
438;SDS011;206;48.782;9.252;2023-04-15T09:55:49;7.33;;;3.20;;
438;SDS011;206;48.782;9.252;2023-04-15T09:58:26;10.23;;;3.40;;
438;SDS011;206;48.782;9.252;2023-04-15T10:00:54;4.20;;;3.37;;
438;SDS011;206;48.782;9.252;2023-04-15T10:03:24;6.87;;;3.33;;
438;SDS011;206;48.782;9.252;2023-04-15T10:05:52;5.60;;;3.77;;
438;SDS011;206;48.782;9.252;2023-04-15T10:08:20;6.00;;;3.00;;
438;SDS011;206;48.782;9.252;2023-04-15T10:10:48;5.03;;;3.10;;
438;SDS011;206;48.782;9.252;2023-04-15T10:13:16;3.90;;;3.47;;
438;SDS011;206;48.782;9.252;2023-04-15T10:15:43;3.90;;;2.83;;
438;SDS011;206;48.782;9.252;2023-04-15T10:18:12;4.30;;;2.97;;
438;SDS011;206;48.782;9.252;2023-04-15T10:20:41;4.10;;;3.73;;
438;SDS011;206;48.782;9.252;2023-04-15T10:23:08;6.83;;;3.57;;
438;SDS011;206;48.782;9.252;2023-04-15T10:25:33;7.30;;;3.20;;
438;SDS011;206;48.782;9.252;2023-04-15T10:28:00;6.00;;;3.80;;
438;SDS011;206;48.782;9.252;2023-04-15T10:30:27;7.07;;;4.20;;
438;SDS011;206;48.782;9.252;2023-04-15T10:32:53;7.70;;;4.20;;
438;SDS011;206;48.782;9.252;2023-04-15T10:35:20;5.87;;;4.00;;
438;SDS011;206;48.782;9.252;2023-04-15T10:37:47;3.80;;;3.60;;
438;SDS011;206;48.782;9.252;2023-04-15T10:40:31;3.73;;;3.23;;
438;SDS011;206;48.782;9.252;2023-04-15T10:42:58;3.63;;;2.50;;
438;SDS011;206;48.782;9.252;2023-04-15T10:45:32;3.57;;;2.43;;
438;SDS011;206;48.782;9.252;2023-04-15T10:48:00;7.10;;;3.20;;
438;SDS011;206;48.782;9.252;2023-04-15T10:50:29;6.97;;;2.40;;
438;SDS011;206;48.782;9.252;2023-04-15T10:52:55;3.00;;;2.50;;
438;SDS011;206;48.782;9.252;2023-04-15T10:55:22;5.67;;;3.50;;
438;SDS011;206;48.782;9.252;2023-04-15T10:57:52;7.20;;;3.83;;
438;SDS011;206;48.782;9.252;2023-04-15T11:00:21;3.27;;;2.50;;
438;SDS011;206;48.782;9.252;2023-04-15T11:02:54;5.47;;;2.77;;
438;SDS011;206;48.782;9.252;2023-04-15T11:08:05;10.23;;;3.10;;
438;SDS011;206;48.782;9.252;2023-04-15T11:13:04;3.50;;;2.90;;
438;SDS011;206;48.782;9.252;2023-04-15T11:15:41;3.70;;;3.10;;
438;SDS011;206;48.782;9.252;2023-04-15T11:20:37;3.73;;;3.53;;
438;SDS011;206;48.782;9.252;2023-04-15T11:23:03;4.90;;;3.10;;
438;SDS011;206;48.782;9.252;2023-04-15T11:25:30;7.60;;;4.23;;
438;SDS011;206;48.782;9.252;2023-04-15T11:27:57;5.93;;;3.50;;
438;SDS011;206;48.782;9.252;2023-04-15T11:30:26;4.47;;;3.07;;
438;SDS011;206;48.782;9.252;2023-04-15T11:32:54;4.73;;;3.67;;
438;SDS011;206;48.782;9.252;2023-04-15T11:35:23;4.50;;;3.40;;
438;SDS011;206;48.782;9.252;2023-04-15T11:37:49;4.93;;;3.60;;
438;SDS011;206;48.782;9.252;2023-04-15T11:40:15;7.97;;;3.60;;
438;SDS011;206;48.782;9.252;2023-04-15T11:42:45;5.97;;;3.50;;
438;SDS011;206;48.782;9.252;2023-04-15T11:45:11;6.40;;;3.50;;
438;SDS011;206;48.782;9.252;2023-04-15T11:47:39;6.43;;;4.43;;
438;SDS011;206;48.782;9.252;2023-04-15T11:50:12;3.77;;;3.00;;
438;SDS011;206;48.782;9.252;2023-04-15T11:52:38;4.10;;;3.90;;
438;SDS011;206;48.782;9.252;2023-04-15T11:55:06;4.90;;;4.10;;
438;SDS011;206;48.782;9.252;2023-04-15T11:57:33;5.23;;;4.20;;
438;SDS011;206;48.782;9.252;2023-04-15T11:59:59;8.90;;;3.80;;
438;SDS011;206;48.782;9.252;2023-04-15T12:02:29;6.70;;;4.20;;
438;SDS011;206;48.782;9.252;2023-04-15T12:05:05;4.50;;;3.67;;
438;SDS011;206;48.782;9.252;2023-04-15T12:07:31;5.20;;;3.67;;
438;SDS011;206;48.782;9.252;2023-04-15T12:09:57;5.40;;;4.07;;
438;SDS011;206;48.782;9.252;2023-04-15T12:12:26;7.13;;;4.20;;
438;SDS011;206;48.782;9.252;2023-04-15T12:14:52;8.30;;;5.17;;
438;SDS011;206;48.782;9.252;2023-04-15T12:17:20;5.67;;;2.83;;
438;SDS011;206;48.782;9.252;2023-04-15T12:19:48;3.20;;;2.67;;
438;SDS011;206;48.782;9.252;2023-04-15T12:22:20;5.07;;;2.67;;
438;SDS011;206;48.782;9.252;2023-04-15T12:24:46;2.70;;;2.37;;
438;SDS011;206;48.782;9.252;2023-04-15T12:27:13;5.13;;;2.73;;
438;SDS011;206;48.782;9.252;2023-04-15T12:29:40;3.73;;;2.67;;
438;SDS011;206;48.782;9.252;2023-04-15T12:32:08;5.00;;;3.25;;
438;SDS011;206;48.782;9.252;2023-04-15T12:34:39;4.50;;;3.10;;
438;SDS011;206;48.782;9.252;2023-04-15T12:37:09;4.70;;;4.37;;
438;SDS011;206;48.782;9.252;2023-04-15T12:39:36;6.17;;;3.47;;
438;SDS011;206;48.782;9.252;2023-04-15T12:42:04;4.27;;;4.00;;
438;SDS011;206;48.782;9.252;2023-04-15T12:44:30;4.07;;;3.87;;
438;SDS011;206;48.782;9.252;2023-04-15T12:46:57;6.67;;;4.17;;
438;SDS011;206;48.782;9.252;2023-04-15T12:49:23;4.70;;;4.43;;
438;SDS011;206;48.782;9.252;2023-04-15T12:51:53;3.60;;;3.40;;
438;SDS011;206;48.782;9.252;2023-04-15T12:54:20;4.30;;;3.80;;
438;SDS011;206;48.782;9.252;2023-04-15T12:56:46;7.00;;;3.80;;
438;SDS011;206;48.782;9.252;2023-04-15T12:59:14;5.60;;;3.90;;
438;SDS011;206;48.782;9.252;2023-04-15T13:01:40;3.27;;;3.07;;
438;SDS011;206;48.782;9.252;2023-04-15T13:04:06;2.97;;;2.80;;
438;SDS011;206;48.782;9.252;2023-04-15T13:06:32;3.10;;;2.80;;
438;SDS011;206;48.782;9.252;2023-04-15T13:08:58;3.67;;;3.00;;
438;SDS011;206;48.782;9.252;2023-04-15T13:11:25;2.60;;;2.40;;
438;SDS011;206;48.782;9.252;2023-04-15T13:13:51;2.80;;;2.60;;
438;SDS011;206;48.782;9.252;2023-04-15T13:16:17;8.10;;;2.83;;
438;SDS011;206;48.782;9.252;2023-04-15T13:18:43;2.50;;;2.13;;
438;SDS011;206;48.782;9.252;2023-04-15T13:21:10;5.17;;;2.50;;
438;SDS011;206;48.782;9.252;2023-04-15T13:23:36;2.50;;;1.87;;
438;SDS011;206;48.782;9.252;2023-04-15T13:26:02;3.30;;;2.33;;
438;SDS011;206;48.782;9.252;2023-04-15T13:28:28;2.50;;;2.00;;
438;SDS011;206;48.782;9.252;2023-04-15T13:30:53;2.30;;;1.97;;
438;SDS011;206;48.782;9.252;2023-04-15T13:33:19;4.23;;;2.43;;
438;SDS011;206;48.782;9.252;2023-04-15T13:35:45;5.87;;;2.23;;
438;SDS011;206;48.782;9.252;2023-04-15T13:38:11;4.10;;;2.10;;
438;SDS011;206;48.782;9.252;2023-04-15T13:40:36;6.90;;;2.27;;
438;SDS011;206;48.782;9.252;2023-04-15T13:43:02;3.40;;;1.80;;
438;SDS011;206;48.782;9.252;2023-04-15T13:45:28;6.67;;;2.23;;
438;SDS011;206;48.782;9.252;2023-04-15T13:47:54;5.80;;;2.67;;
438;SDS011;206;48.782;9.252;2023-04-15T13:50:20;4.60;;;1.53;;
438;SDS011;206;48.782;9.252;2023-04-15T13:52:46;2.53;;;1.80;;
438;SDS011;206;48.782;9.252;2023-04-15T13:55:12;1.30;;;1.30;;
438;SDS011;206;48.782;9.252;2023-04-15T13:57:37;3.27;;;2.60;;
438;SDS011;206;48.782;9.252;2023-04-15T14:00:03;2.70;;;1.37;;
438;SDS011;206;48.782;9.252;2023-04-15T14:02:30;1.97;;;1.67;;
438;SDS011;206;48.782;9.252;2023-04-15T14:04:55;5.80;;;5.07;;
438;SDS011;206;48.782;9.252;2023-04-15T14:07:21;8.27;;;5.33;;
438;SDS011;206;48.782;9.252;2023-04-15T14:09:47;1.47;;;1.03;;
438;SDS011;206;48.782;9.252;2023-04-15T14:12:12;3.87;;;1.30;;
438;SDS011;206;48.782;9.252;2023-04-15T14:14:38;4.67;;;2.83;;
438;SDS011;206;48.782;9.252;2023-04-15T14:17:04;1.63;;;1.20;;
438;SDS011;206;48.782;9.252;2023-04-15T14:19:30;1.37;;;1.30;;
438;SDS011;206;48.782;9.252;2023-04-15T14:21:56;2.77;;;1.50;;
438;SDS011;206;48.782;9.252;2023-04-15T14:24:23;1.70;;;0.93;;
438;SDS011;206;48.782;9.252;2023-04-15T14:26:49;1.45;;;0.90;;
438;SDS011;206;48.782;9.252;2023-04-15T14:29:14;4.10;;;1.85;;
438;SDS011;206;48.782;9.252;2023-04-15T14:31:40;2.10;;;1.20;;
438;SDS011;206;48.782;9.252;2023-04-15T14:34:08;2.07;;;1.50;;
438;SDS011;206;48.782;9.252;2023-04-15T14:36:33;1.37;;;1.00;;
438;SDS011;206;48.782;9.252;2023-04-15T14:38:59;2.47;;;0.93;;
438;SDS011;206;48.782;9.252;2023-04-15T14:41:25;2.20;;;1.17;;
438;SDS011;206;48.782;9.252;2023-04-15T14:43:51;1.67;;;1.37;;
438;SDS011;206;48.782;9.252;2023-04-15T14:46:16;2.43;;;1.50;;
438;SDS011;206;48.782;9.252;2023-04-15T14:48:42;2.90;;;1.43;;
438;SDS011;206;48.782;9.252;2023-04-15T14:51:07;5.40;;;1.77;;
438;SDS011;206;48.782;9.252;2023-04-15T14:53:33;5.03;;;2.30;;
438;SDS011;206;48.782;9.252;2023-04-15T14:55:59;1.00;;;0.90;;
438;SDS011;206;48.782;9.252;2023-04-15T14:58:24;1.20;;;1.10;;
438;SDS011;206;48.782;9.252;2023-04-15T15:00:50;3.13;;;1.30;;
438;SDS011;206;48.782;9.252;2023-04-15T15:03:16;2.03;;;1.33;;
438;SDS011;206;48.782;9.252;2023-04-15T15:05:42;2.60;;;1.80;;
438;SDS011;206;48.782;9.252;2023-04-15T15:08:10;4.83;;;1.90;;
438;SDS011;206;48.782;9.252;2023-04-15T15:10:37;9.00;;;3.00;;
438;SDS011;206;48.782;9.252;2023-04-15T15:13:04;1.93;;;1.10;;
438;SDS011;206;48.782;9.252;2023-04-15T15:15:32;2.50;;;1.70;;
438;SDS011;206;48.782;9.252;2023-04-15T15:17:58;2.50;;;1.40;;
438;SDS011;206;48.782;9.252;2023-04-15T15:20:24;2.20;;;1.83;;
438;SDS011;206;48.782;9.252;2023-04-15T15:22:50;3.27;;;1.67;;
438;SDS011;206;48.782;9.252;2023-04-15T15:25:15;1.63;;;1.40;;
438;SDS011;206;48.782;9.252;2023-04-15T15:27:41;1.67;;;1.20;;
438;SDS011;206;48.782;9.252;2023-04-15T15:30:07;1.73;;;1.10;;
438;SDS011;206;48.782;9.252;2023-04-15T15:32:33;2.17;;;1.38;;
438;SDS011;206;48.782;9.252;2023-04-15T15:34:59;2.93;;;1.53;;
438;SDS011;206;48.782;9.252;2023-04-15T15:37:24;4.67;;;1.90;;
438;SDS011;206;48.782;9.252;2023-04-15T15:39:50;1.23;;;1.20;;
438;SDS011;206;48.782;9.252;2023-04-15T15:42:19;3.10;;;1.60;;
438;SDS011;206;48.782;9.252;2023-04-15T15:44:45;2.40;;;1.00;;
438;SDS011;206;48.782;9.252;2023-04-15T15:47:13;1.60;;;1.40;;